createdAt,value
2024-03-13T00:03:49.261Z,7.19
2024-03-13T00:07:43.309Z,7.18
2024-03-13T00:11:40.311Z,7.19
2024-03-13T00:15:57.526Z,7.15
2024-03-13T00:19:48.330Z,7.10
2024-03-13T00:35:22.169Z,7.07
2024-03-13T00:49:25.017Z,7.06
2024-03-13T01:11:56.181Z,7.10
2024-03-13T01:15:57.234Z,7.09
2024-03-13T01:23:15.940Z,7.09
2024-03-13T01:33:56.274Z,7.09
2024-03-13T01:41:09.177Z,7.10
2024-03-13T01:48:27.097Z,7.13
2024-03-13T01:59:43.562Z,7.20
2024-03-13T02:14:28.243Z,7.22
2024-03-13T02:26:26.286Z,7.16
2024-03-13T02:45:12.372Z,7.17
2024-03-13T02:49:11.152Z,7.16
2024-03-13T02:53:26.847Z,7.17
2024-03-13T02:57:02.186Z,7.17
2024-03-13T03:00:45.203Z,7.16
2024-03-13T03:05:06.234Z,7.14
2024-03-13T03:09:00.382Z,7.15
2024-03-13T03:20:16.200Z,7.12
2024-03-13T03:23:47.194Z,7.09
2024-03-13T03:27:42.136Z,7.07
2024-03-13T03:35:08.265Z,7.04
2024-03-13T03:42:41.003Z,7.00
2024-03-13T03:46:22.089Z,7.01
2024-03-13T03:50:22.540Z,7.02
2024-03-13T03:54:40.276Z,7.00
2024-03-13T03:58:41.193Z,6.98
2024-03-13T04:02:50.801Z,6.96
2024-03-13T04:07:20.529Z,6.94
2024-03-13T04:11:52.379Z,6.95
2024-03-13T04:16:02.106Z,6.95
2024-03-13T04:23:22.343Z,6.92
2024-03-13T04:27:22.061Z,6.89
2024-03-13T04:41:52.326Z,6.80
2024-03-13T04:45:22.533Z,6.77
2024-03-13T04:49:23.620Z,6.75
2024-03-13T04:53:13.945Z,6.70
2024-03-13T04:57:22.064Z,6.70
2024-03-13T05:01:14.042Z,6.68
2024-03-13T05:21:14.708Z,6.64
2024-03-13T05:24:47.925Z,6.60
2024-03-13T05:28:39.068Z,6.60
2024-03-13T05:31:28.343Z,6.58
2024-03-13T05:50:56.118Z,6.64
2024-03-13T05:55:05.781Z,6.61
2024-03-13T05:59:19.948Z,6.61
2024-03-13T06:03:30.431Z,6.64
2024-03-13T06:37:39.860Z,6.60
2024-03-13T06:42:14.196Z,6.61
2024-03-13T07:27:51.881Z,6.60
2024-03-13T07:31:35.853Z,6.59
2024-03-13T07:35:47.247Z,6.60
2024-03-13T07:39:57.866Z,6.59
2024-03-13T07:44:27.587Z,6.62
2024-03-13T09:08:48.597Z,6.59
2024-03-13T09:16:40.174Z,6.60
2024-03-13T09:20:09.888Z,6.55
2024-03-13T09:27:38.999Z,6.50
2024-03-13T09:31:15.732Z,6.49
2024-03-13T09:35:07.127Z,6.55
2024-03-13T09:39:04.110Z,6.58
2024-03-13T09:43:53.504Z,6.59
2024-03-13T09:48:05.274Z,6.54
2024-03-13T09:52:20.735Z,6.54
2024-03-13T09:56:32.195Z,6.52
2024-03-13T10:30:42.571Z,6.40
2024-03-13T10:39:06.761Z,6.43
2024-03-13T10:43:18.649Z,6.44
2024-03-13T10:47:49.633Z,6.49
2024-03-13T11:07:02.690Z,6.47
2024-03-13T11:11:18.959Z,6.39
2024-03-13T11:15:41.556Z,6.39
2024-03-13T11:33:00.248Z,6.34
2024-03-13T11:37:27.802Z,6.43
2024-03-13T11:48:38.455Z,6.44
2024-03-13T11:53:12.616Z,6.38
2024-03-13T11:57:07.447Z,6.37
2024-03-13T12:32:34.090Z,5.83
2024-03-13T12:36:59.759Z,5.79
2024-03-13T12:41:09.299Z,5.78
2024-03-13T12:45:01.159Z,5.75
2024-03-13T12:52:59.914Z,5.66
2024-03-13T13:18:59.773Z,5.76
2024-03-13T13:23:28.310Z,5.78
2024-03-13T13:27:00.648Z,5.75
2024-03-13T13:45:50.610Z,5.60
2024-03-13T14:01:40.791Z,5.59
2024-03-13T14:23:27.570Z,5.58
2024-03-13T14:38:04.758Z,5.46
2024-03-13T14:53:02.929Z,5.30
2024-03-13T15:00:32.550Z,5.20
2024-03-13T15:45:50.147Z,4.60
2024-03-13T15:59:44.976Z,4.63
2024-03-13T16:03:36.504Z,4.66
2024-03-13T16:35:01.725Z,4.63
2024-03-13T16:38:31.721Z,4.61
2024-03-13T16:41:47.655Z,4.58
2024-03-13T16:45:44.544Z,4.58
2024-03-13T16:49:24.748Z,4.55
2024-03-13T16:53:35.661Z,4.53
2024-03-13T16:57:44.151Z,4.53
2024-03-13T17:01:40.723Z,4.52
2024-03-13T17:08:28.030Z,4.55
2024-03-13T17:11:32.491Z,4.52
2024-03-13T17:14:32.300Z,4.54
2024-03-13T17:17:31.170Z,4.56
2024-03-13T17:20:41.732Z,4.56
2024-03-13T17:24:38.293Z,4.50
2024-03-13T17:29:02.076Z,4.45
2024-03-13T17:33:15.983Z,4.33
2024-03-13T17:37:05.388Z,4.28
2024-03-13T17:40:51.992Z,4.23
2024-03-13T17:44:09.087Z,4.22
2024-03-13T17:47:58.344Z,4.21
2024-03-13T17:51:46.921Z,4.19
2024-03-13T17:55:36.561Z,4.22
2024-03-13T18:00:24.811Z,4.26
2024-03-13T18:04:52.861Z,4.18
2024-03-13T18:08:40.283Z,4.21
2024-03-13T18:19:51.061Z,4.16
2024-03-13T18:23:36.930Z,4.18
2024-03-13T18:27:34.513Z,4.16
2024-03-13T18:31:44.699Z,4.16
2024-03-13T18:35:52.043Z,4.20
2024-03-13T18:39:34.100Z,4.24
2024-03-13T18:43:45.363Z,4.29
2024-03-13T19:12:08.068Z,4.14
2024-03-13T19:16:34.957Z,4.09
2024-03-13T19:20:42.912Z,4.06
2024-03-13T19:24:58.790Z,4.05
2024-03-13T19:40:41.405Z,4.39
2024-03-13T19:44:50.601Z,4.31
2024-03-13T19:48:42.009Z,4.25
2024-03-13T19:52:51.000Z,4.25
2024-03-13T19:56:21.080Z,4.25
2024-03-13T20:00:00.396Z,4.28
2024-03-13T20:03:30.086Z,4.26
2024-03-13T20:22:20.702Z,4.27
2024-03-13T20:25:42.822Z,4.25
2024-03-13T20:28:35.517Z,4.26
2024-03-13T20:31:47.557Z,4.24
2024-03-13T20:35:19.225Z,4.22
2024-03-13T20:38:33.800Z,4.19
2024-03-13T20:42:05.935Z,4.18
2024-03-13T20:48:03.834Z,4.21
2024-03-13T20:55:26.285Z,4.19
2024-03-13T20:59:22.827Z,4.20
2024-03-13T21:03:31.462Z,4.21
2024-03-13T21:07:20.089Z,4.23
2024-03-13T21:10:58.600Z,4.22
2024-03-13T21:14:13.420Z,4.20
2024-03-13T21:17:31.127Z,4.17
2024-03-13T21:21:01.389Z,4.15
2024-03-13T21:24:23.401Z,4.15
2024-03-13T21:27:39.154Z,4.13
2024-03-13T22:09:19.142Z,4.16
2024-03-13T22:12:47.965Z,4.08
2024-03-13T22:16:21.721Z,4.00
2024-03-13T22:20:10.926Z,3.97
2024-03-13T22:23:58.128Z,3.94
2024-03-13T22:27:34.305Z,3.93
2024-03-13T22:35:46.424Z,3.87
2024-03-13T22:40:07.772Z,3.85
2024-03-13T22:43:46.776Z,3.85
2024-03-13T22:47:54.153Z,3.83
2024-03-13T22:52:09.025Z,3.85
2024-03-13T22:56:00.846Z,3.88
2024-03-13T22:59:49.621Z,3.88
2024-03-13T23:03:35.509Z,3.88
2024-03-13T23:22:12.245Z,3.88
2024-03-13T23:26:21.712Z,3.85
2024-03-13T23:29:51.644Z,3.84
2024-03-13T23:33:49.379Z,3.86
2024-03-13T23:37:36.120Z,3.88
2024-03-13T23:55:53.651Z,4.18
